31e Triathlon / Duathlon Etaples 2019

Epreuve sélectionnée:


Triathlon - Résultats Scratch

Filtre:

Partants Général Top 5



Recherche:

N° dossard
Nom
Club
Triathlon - Classement arrivée
Clt Athlète Nat. Club Temps Sexe Cat Nat/CaP #1 Velo Velo Cum #2 CaP/CaP2 fin velo T1 fin cap T1
1 167 LEGOUT Pierre TRI VAL DE GRAY 01:58:25 M (1e) Senior (1e) 00:18:20 (1e) 00:02:09 (6e) 00:59:14 (2e) 01:20:19 (1e) 00:00:36 (11e) 00:38:07 (4e) 00:50:20 (1e) 01:39:30 (1e) Partagez votre performance
5 90 LOUCHAERT Emmanuel COTE D OPALE TRIATHLON CALAIS SAINT OMER 02:07:14 M (5e) Master (1e) 00:19:51 (3e) 00:02:04 (4e) 01:03:57 (14e) 01:26:24 (3e) 00:00:34 (4e) 00:40:50 (17e) 00:53:51 (3e) 01:46:36 (5e) Partagez votre performance
6 411 TWO BE TRI . TRIATHLON CLUB BOULONNAIS 02:08:21 M (6e) Relais (1e) 00:22:30 (14e) 00:01:58 (2e) 01:04:50 (24e) 01:29:47 (11e) 00:00:31 (3e) 00:38:35 (6e) 00:56:42 (9e) 01:48:49 (7e) Partagez votre performance
37 21 CARON Sophie LYS CALAIS TRIATHLON 02:19:32 F (1e) Senior (1e) 00:22:28 (13e) 00:02:34 (23e) 01:09:42 (81e) 01:35:28 (33e) 00:00:46 (38e) 00:44:04 (55e) 00:59:38 (23e) 01:57:16 (34e) Partagez votre performance
42 403 BERCK OPALE SUD TRIATHLON . BERCK OPALE SUD TRIATHLON 02:20:36 X (1e) Relais (1e) 00:28:31 (128e) 00:02:45 (37e) 01:05:22 (25e) 01:37:11 (40e) 00:00:34 (5e) 00:43:26 (42e) 01:03:35 (48e) 01:58:39 (40e) Partagez votre performance
63 407 GRENADE . TRIATHLON CLUB DU MONTREUILLOIS 02:25:51 F (3e) Relais (1e) 00:28:46 (131e) 00:02:19 (12e) 01:09:42 (80e) 01:41:24 (73e) 00:00:39 (22e) 00:44:27 (63e) 01:04:59 (71e) 02:03:49 (68e) Partagez votre performance
126 7 BEAUVAIS Sandra BEAUVAIS TRIATHLON 02:35:35 F (6e) Master (1e) 00:28:02 (103e) 00:03:37 (123e) 01:21:00 (210e) 01:53:40 (168e) 00:01:02 (94e) 00:41:56 (28e) 01:11:53 (154e) 02:14:25 (143e) Partagez votre performance
2 180 RENARD Emmanuel TRIATHLON CLUB DU MONTREUILLOIS 01:59:39 M (2e) Senior (2e) 00:18:47 (2e) 00:02:14 (8e) 00:59:45 (4e) 01:21:31 (2e) 00:00:47 (43e) 00:38:09 (5e) 00:51:01 (2e) 01:40:36 (2e) Partagez votre performance
9 61 DEWANCKELE Matthieu BEAUVAIS TRIATHLON 02:11:18 M (9e) Master (2e) 00:22:11 (9e) 00:02:41 (32e) 01:05:58 (33e) 01:31:32 (15e) 00:00:43 (30e) 00:39:46 (11e) 00:57:46 (15e) 01:51:09 (12e) Partagez votre performance
16 405 CALAISFORNIA LYS TEAM . LYS CALAIS TRIATHLON 02:14:32 M (16e) Relais (2e) 00:22:55 (19e) 00:01:56 (1e) 01:08:10 (57e) 01:33:37 (21e) 00:00:37 (13e) 00:40:56 (19e) 00:58:45 (18e) 01:53:38 (17e) Partagez votre performance
55 25 BERNARD Charlotte RACING CLUB ARRAS TRIATHLON 02:24:23 F (2e) Senior (2e) 00:22:50 (18e) 00:02:33 (21e) 01:10:33 (97e) 01:36:43 (39e) 00:00:49 (48e) 00:47:40 (108e) 01:00:21 (30e) 02:00:51 (50e) Partagez votre performance
150 408 TEAM OMV . 02:41:12 X (2e) Relais (2e) 00:34:56 (235e) 00:03:05 (66e) 01:03:50 (13e) 01:42:31 (89e) 00:00:42 (26e) 00:58:42 (233e) 01:09:57 (135e) 02:11:26 (125e) Partagez votre performance
155 5 RIGAULT Isabelle BEAUVAIS TRIATHLON 02:42:08 F (9e) Master (2e) 00:28:12 (111e) 00:02:54 (52e) 01:18:40 (183e) 01:50:55 (151e) 00:01:10 (126e) 00:51:14 (160e) 01:10:18 (138e) 02:16:01 (152e) Partagez votre performance
163 419 LES FILLES DE LONGUENESSE . 02:43:51 F (11e) Relais (2e) 00:25:29 (45e) 00:02:45 (38e) 01:22:14 (219e) 01:51:05 (153e) 00:00:39 (19e) 00:52:46 (179e) 01:08:00 (118e) 02:16:38 (155e) Partagez votre performance
3 112 ANDRÉ Valentin LEVALLOIS TRIATHLON 02:01:23 M (3e) Senior (3e) 00:24:33 (30e) 00:02:13 (7e) 00:59:10 (1e) 01:26:37 (4e) 00:00:43 (28e) 00:34:47 (1e) 00:56:37 (8e) 01:44:02 (3e) Partagez votre performance
10 155 FAURY Emmanuel SC ABBEVILLE TRIATHLON NATATION 02:11:42 M (10e) Master (3e) 00:23:12 (20e) 00:02:39 (29e) 01:03:10 (8e) 01:29:57 (12e) 00:00:58 (77e) 00:41:46 (24e) 00:56:58 (11e) 01:51:00 (10e) Partagez votre performance
22 420 STADE LONGUENESSOIS . COT / LYS 02:15:28 M (22e) Relais (3e) 00:24:28 (29e) 00:02:03 (3e) 01:07:34 (48e) 01:34:33 (27e) 00:00:29 (1e) 00:40:55 (18e) 00:59:37 (22e) 01:54:39 (22e) Partagez votre performance
93 24 JONARD Marie RACING CLUB ARRAS TRIATHLON 02:31:06 F (4e) Senior (3e) 00:26:14 (58e) 00:02:53 (50e) 01:13:35 (131e) 01:43:49 (103e) 00:01:08 (120e) 00:47:18 (100e) 01:05:35 (80e) 02:07:35 (94e) Partagez votre performance
168 16 DELPHINE Vermeulen ITU - BEL 02:44:44 F (12e) Master (3e) 00:33:24 (213e) 00:03:22 (98e) 01:19:03 (191e) 01:56:52 (195e) 00:01:05 (110e) 00:47:52 (113e) 01:16:25 (203e) 02:20:36 (174e) Partagez votre performance
174 414 MBFL . 02:46:21 X (3e) Relais (3e) 00:32:05 (193e) 00:05:39 (260e) 01:14:44 (140e) 01:53:13 (162e) 00:00:46 (42e) 00:53:08 (183e) 01:14:35 (182e) 02:19:13 (168e) Partagez votre performance
4 135 SAISON Antoine OLYMPIC NICE NATATION 02:06:50 M (4e) Senior (4e) 00:24:00 (27e) 00:02:21 (13e) 00:59:44 (3e) 01:26:39 (5e) 00:00:36 (10e) 00:40:12 (14e) 00:55:44 (6e) 01:46:23 (4e) Partagez votre performance
12 192 CAMBOUR Aurelien TRIATHLON SANNOIS FRANCONVILLE 02:13:08 M (12e) Master (4e) 00:22:23 (12e) 00:02:37 (25e) 01:07:08 (43e) 01:32:58 (18e) 00:00:52 (60e) 00:40:11 (13e) 00:58:15 (17e) 01:53:15 (15e) Partagez votre performance
26 421 LES GRANDS DADÉS . 02:16:22 M (26e) Relais (4e) 00:34:55 (234e) 00:02:16 (10e) 01:01:59 (5e) 01:39:44 (52e) 00:00:35 (7e) 00:36:38 (2e) 01:08:03 (119e) 01:58:04 (39e) Partagez votre performance
119 28 PEYTAVI Marie RONCHIN ATHLETIC CLUB 02:35:13 F (5e) Senior (4e) 00:22:45 (16e) 00:03:36 (119e) 01:17:12 (167e) 01:44:31 (113e) 00:00:59 (86e) 00:50:43 (157e) 01:04:49 (69e) 02:09:59 (117e) Partagez votre performance
172 40 DEVISSE Justine 02:45:20 F (14e) Master (4e) 00:31:16 (180e) 00:03:43 (136e) 01:19:48 (198e) 01:56:04 (185e) 00:01:19 (156e) 00:49:16 (139e) 01:14:22 (180e) 02:20:41 (175e) Partagez votre performance
266 410 TRIPLETTE . 03:22:08 X (4e) Relais (4e) 00:44:28 (276e) 00:03:06 (70e) 01:25:00 (240e) 02:13:24 (260e) 00:00:51 (58e) 01:08:44 (265e) 01:29:09 (271e) 02:47:06 (264e) Partagez votre performance
7 133 ZIEMBA Matthieu MSA TRIATHLON 02:08:58 M (7e) Senior (5e) 00:20:23 (4e) 00:02:24 (15e) 01:04:29 (20e) 01:27:55 (6e) 00:00:41 (23e) 00:41:04 (21e) 00:54:35 (4e) 01:48:32 (6e) Partagez votre performance
13 161 GOSSE Nicolas TEAM GOFAST ARMENTIERES TRIATHLON 02:13:24 M (13e) Master (5e) 00:20:27 (5e) 00:02:22 (14e) 01:05:55 (31e) 01:29:22 (8e) 00:00:39 (20e) 00:44:02 (54e) 00:55:27 (5e) 01:50:43 (9e) Partagez votre performance
69 416 LA TRIPLETTE INFERNAL . 02:26:47 M (65e) Relais (5e) 00:27:43 (91e) 00:02:17 (11e) 01:09:03 (69e) 01:39:41 (51e) 00:00:38 (18e) 00:47:06 (95e) 01:04:44 (65e) 02:02:47 (63e) Partagez votre performance
135 32 BLUTEAU Christelle TRIATHLON CLUB DU MONTREUILLOIS 02:37:22 F (7e) Senior (5e) 00:30:55 (172e) 00:02:44 (34e) 01:15:07 (146e) 01:49:30 (140e) 00:00:45 (36e) 00:47:53 (114e) 01:10:26 (139e) 02:13:41 (139e) Partagez votre performance
177 34 GRARD Ingrid VALENCIENNES TRIATHLON 02:47:12 F (17e) Master (5e) 00:33:57 (221e) 00:04:02 (175e) 01:17:57 (178e) 01:56:53 (196e) 00:00:59 (84e) 00:50:20 (150e) 01:16:45 (210e) 02:23:07 (193e) Partagez votre performance
8 198 MARIN Nicolas VALENCIENNES TRIATHLON 02:09:15 M (8e) Senior (6e) 00:22:41 (15e) 00:02:51 (46e) 01:03:22 (11e) 01:29:32 (9e) 00:00:38 (17e) 00:39:44 (10e) 00:57:16 (13e) 01:49:27 (8e) Partagez votre performance
17 80 ROUCOUX David CLUB OLYMPIQUE DE LA BRESLE 02:14:38 M (17e) Master (6e) 00:24:04 (28e) 00:02:41 (31e) 01:06:10 (38e) 01:33:40 (22e) 00:00:46 (41e) 00:40:58 (20e) 00:59:45 (24e) 01:53:48 (19e) Partagez votre performance
71 418 LES COTISTES . COTE D OPALE TRIATHLON CALAIS SAINT OMER 02:26:57 M (67e) Relais (6e) 00:26:59 (74e) 00:02:31 (19e) 01:11:16 (107e) 01:41:23 (72e) 00:00:39 (21e) 00:45:35 (75e) 01:04:48 (68e) 02:03:33 (66e) Partagez votre performance
138 4 CLUZEL Perrine BEAUVAIS TRIATHLON 02:38:10 F (8e) Senior (6e) 00:28:10 (108e) 00:02:50 (45e) 01:15:30 (148e) 01:47:28 (126e) 00:00:59 (82e) 00:50:43 (156e) 01:07:45 (116e) 02:12:38 (130e) Partagez votre performance
183 29 BAELEN Delphine SKWAL ATHLON 02:49:06 F (18e) Master (6e) 00:32:03 (191e) 00:04:04 (179e) 01:19:08 (193e) 01:56:41 (192e) 00:01:28 (176e) 00:52:25 (172e) 01:16:07 (199e) 02:22:51 (192e) Partagez votre performance
11 297 SELLIER Sebastien 02:12:46 M (11e) Senior (7e) 00:22:03 (8e) 00:03:18 (89e) 01:03:17 (10e) 01:29:36 (10e) 00:00:59 (85e) 00:43:10 (37e) 00:56:52 (10e) 01:51:33 (13e) Partagez votre performance
20 123 DARTOIS Regis LOMME NATATION TRIATHLON 02:15:10 M (20e) Master (7e) 00:25:11 (37e) 00:03:09 (75e) 01:03:31 (12e) 01:32:40 (17e) 00:00:51 (59e) 00:42:30 (32e) 01:00:10 (29e) 01:53:55 (20e) Partagez votre performance
75 401 LES MALOS . 02:27:55 M (71e) Relais (7e) 00:27:56 (97e) 00:02:46 (40e) 01:10:59 (104e) 01:42:14 (83e) 00:00:35 (8e) 00:45:41 (77e) 01:04:37 (62e) 02:04:49 (73e) Partagez votre performance
158 30 SIX Pauline TEAM GOFAST ARMENTIERES TRIATHLON 02:42:28 F (10e) Senior (7e) 00:31:47 (186e) 00:03:51 (155e) 01:19:32 (195e) 01:56:23 (191e) 00:01:14 (137e) 00:46:05 (82e) 01:14:26 (181e) 02:19:15 (169e) Partagez votre performance
212 39 LEFEBVRE Nicolas 02:56:42 F (21e) Master (7e) 00:29:41 (144e) 00:05:31 (257e) 01:24:30 (238e) 02:00:57 (220e) 00:01:17 (149e) 00:55:45 (210e) 01:16:20 (201e) 02:28:26 (217e) Partagez votre performance
14 113 BRAZY Matthieu LILLE TRIATHLON 02:13:44 M (14e) Senior (8e) 00:25:13 (38e) 00:02:46 (39e) 01:04:16 (16e) 01:33:09 (19e) 00:00:55 (69e) 00:40:35 (15e) 00:59:56 (25e) 01:53:48 (18e) Partagez votre performance
23 189 LOOTEN Bernard TRIATHLON LITTORAL 59 02:15:44 M (23e) Master (8e) 00:29:00 (134e) 00:03:06 (69e) 01:03:08 (7e) 01:36:03 (36e) 00:00:51 (53e) 00:39:42 (8e) 01:03:15 (45e) 01:55:59 (26e) Partagez votre performance